Time;durP1;ratioP1;P1;durP2;ratioP2;P2;SDS_P1;SDS_P2;PMS_P1;PMS_P2;Temp;Humidity;BMP_temperature;BMP_pressure;BME280_temperature;BME280_humidity;BME280_pressure;Samples;Min_cycle;Max_cycle;Signal;HPM_P1;HPM_P2
2022/02/10 07:06:22;;;;;;;32.13;23.67;;;;;;;3.69;99.87;98506.21;1890720;76;28347;-63
2022/02/10 07:09:02;;;;;;;21.10;17.75;;;;;;;3.66;99.57;98497.39;1857349;77;20907;-65
2022/02/10 07:52:30;;;;;;;14.55;10.03;;;;;;;4.78;94.04;98506.41;1795354;80;21201;-59
2022/02/10 07:57:02;;;;;;;14.07;10.80;;;;;;;4.93;93.17;98503.17;1794772;80;21156;-63
2022/02/10 08:00:03;;;;;;;12.73;10.72;;;;;;;4.96;91.43;98496.88;1785132;80;21074;-62
2022/02/10 09:04:56;;;;;;;72.27;14.27;;;;;;;6.01;83.44;98501.53;1792461;79;21019;-61
2022/02/10 09:55:42;;;;;;;10.43;7.90;;;;;;;7.14;80.77;98475.69;1788261;79;21385;-63
2022/02/10 09:58:15;;;;;;;9.85;8.80;;;;;;;7.15;80.63;98473.31;1796591;79;20866;-62
2022/02/10 10:00:48;;;;;;;9.45;8.03;;;;;;;7.12;80.29;98463.97;1797751;79;20976;-66
2022/02/10 10:06:02;;;;;;;10.38;8.33;;;;;;;7.13;80.31;98464.77;1773310;80;21073;-66
2022/02/10 10:08:38;;;;;;;8.53;7.62;;;;;;;7.17;79.88;98465.86;1775747;80;20884;-65
2022/02/10 10:14:24;;;;;;;9.20;7.58;;;;;;;7.24;79.55;98457.11;1779334;80;20916;-59
2022/02/10 10:16:57;;;;;;;9.93;7.95;;;;;;;7.26;79.67;98458.46;1776961;80;20924;-63
2022/02/10 10:19:37;;;;;;;8.73;7.08;;;;;;;7.36;79.44;98457.72;1777470;80;21086;-62
2022/02/10 10:52:25;;;;;;;11.30;7.30;;;;;;;7.18;79.11;98446.16;1803210;79;20940;-60
2022/02/10 10:54:54;;;;;;;9.33;6.95;;;;;;;7.07;79.79;98445.80;1800280;79;21126;-57
2022/02/10 10:57:19;;;;;;;11.08;7.40;;;;;;;6.96;80.45;98436.15;1799745;79;21052;-57
2022/02/10 11:22:25;;;;;;;11.60;7.65;;;;;;;6.86;82.32;98425.70;1773277;80;21026;-59
2022/02/10 11:36:32;;;;;;;8.53;7.55;;;;;;;6.76;83.43;98394.20;1827029;75;20939;-63
2022/02/10 11:39:34;;;;;;;8.50;7.50;;;;;;;6.74;83.58;98392.33;1851839;77;20908;-61
2022/02/10 12:39:06;;;;;;;11.80;7.95;;;;;;;7.03;88.34;98348.84;1823827;77;21076;-62
2022/02/10 12:43:55;;;;;;;8.48;7.53;;;;;;;7.18;88.16;98348.92;1766369;81;20980;-61
2022/02/10 13:48:44;;;;;;;7.62;6.62;;;;;;;6.80;83.02;98315.44;1781316;79;21083;-57
2022/02/10 14:15:03;;;;;;;8.28;7.37;;;;;;;6.43;83.29;98328.75;1836316;78;21103;-67
2022/02/10 14:17:35;;;;;;;8.55;7.15;;;;;;;6.41;83.86;98325.55;1828848;78;20960;-58
2022/02/10 14:20:12;;;;;;;8.38;7.30;;;;;;;6.35;84.21;98325.25;1837802;78;20873;-59
2022/02/10 14:27:48;;;;;;;10.78;7.47;;;;;;;6.36;85.03;98322.84;1799161;79;21671;-64
2022/02/10 14:30:15;;;;;;;9.03;7.08;;;;;;;6.33;85.13;98319.91;1730527;81;21067;-60
2022/02/10 14:32:45;;;;;;;9.78;7.20;;;;;;;6.29;85.25;98316.16;1806111;78;21506;-61
2022/02/10 14:35:22;;;;;;;10.72;7.83;;;;;;;6.28;85.47;98311.88;1833017;78;21051;-61
2022/02/10 14:40:28;;;;;;;13.40;9.35;;;;;;;6.24;85.74;98317.45;1819294;79;21780;-65
2022/02/10 14:43:07;;;;;;;12.33;9.05;;;;;;;6.24;85.91;98311.61;1821749;77;20919;-61
2022/02/10 15:18:16;;;;;;;27.02;19.90;;;;;;;5.93;86.61;98289.28;1789406;80;20864;-60
2022/02/10 15:29:26;;;;;;;38.70;27.65;;;;;;;5.78;86.90;98282.98;1818317;79;20978;-65
2022/02/10 15:48:01;;;;;;;23.55;19.00;;;;;;;5.49;87.33;98268.63;1817966;79;21755;-67
2022/02/10 16:10:54;;;;;;;29.48;21.90;;;;;;;5.38;87.62;98264.78;1817914;79;20884;-60
2022/02/10 16:18:07;;;;;;;20.82;15.15;;;;;;;5.26;87.45;98264.93;1809248;79;20865;-67
2022/02/10 16:20:32;;;;;;;21.30;14.40;;;;;;;5.23;87.39;98260.66;1776624;80;20864;-60
2022/02/10 16:23:05;;;;;;;21.97;14.70;;;;;;;5.23;87.31;98256.67;1809088;79;20834;-66
2022/02/10 16:25:35;;;;;;;17.40;14.28;;;;;;;5.20;87.31;98257.16;1808871;79;21070;-66
2022/02/10 16:28:22;;;;;;;17.42;14.65;;;;;;;5.20;87.26;98260.63;1775765;80;20967;-66
2022/02/10 16:30:38;;;;;;;24.50;17.95;;;;;;;5.21;87.18;98251.59;1775356;79;20853;-60
2022/02/10 16:33:05;;;;;;;23.27;17.67;;;;;;;5.25;87.12;98253.23;1809242;79;21443;-60
2022/02/10 16:35:32;;;;;;;26.15;18.50;;;;;;;5.24;86.90;98252.95;1775548;80;20936;-60
2022/02/10 16:37:59;;;;;;;27.73;21.25;;;;;;;5.19;86.66;98251.56;1809048;79;21112;-60
2022/02/10 16:40:25;;;;;;;28.57;22.55;;;;;;;5.12;86.71;98245.64;1775490;80;20929;-60
2022/02/10 16:42:52;;;;;;;27.90;20.60;;;;;;;5.11;86.71;98240.08;1809046;79;20943;-60
2022/02/10 16:45:19;;;;;;;24.25;18.60;;;;;;;5.10;86.72;98245.09;1775693;80;21366;-60
2022/02/10 16:47:46;;;;;;;24.18;19.52;;;;;;;5.06;86.74;98246.13;1809209;79;21431;-65
2022/02/10 16:50:13;;;;;;;28.32;18.77;;;;;;;5.07;86.74;98249.56;1775437;80;21119;-60
2022/02/10 16:52:46;;;;;;;24.52;17.95;;;;;;;5.09;86.62;98254.09;1809296;79;20861;-59
2022/02/10 16:57:48;;;;;;;68.97;50.85;;;;;;;5.11;86.25;98262.09;1809035;79;20941;-59
2022/02/10 17:00:32;;;;;;;20.25;15.93;;;;;;;5.11;86.05;98262.09;1809322;79;20888;-66
2022/02/10 17:02:54;;;;;;;24.07;19.07;;;;;;;5.10;85.82;98260.50;1774115;80;21085;-66
2022/02/10 17:21:33;;;;;;;40.40;29.82;;;;;;;4.90;85.24;98247.53;1858124;77;20907;-66
2022/02/10 17:29:11;;;;;;;21.05;15.00;;;;;;;4.80;85.42;98244.22;1858041;77;21108;-63
2022/02/10 17:31:47;;;;;;;16.17;12.35;;;;;;;4.80;85.39;98254.84;1856373;77;20876;-66
2022/02/10 17:37:00;;;;;;;13.30;10.60;;;;;;;4.81;84.83;98239.17;1858313;77;20872;-62
2022/02/10 17:42:31;;;;;;;14.73;11.50;;;;;;;4.84;84.33;98222.77;1858481;77;21434;-67
2022/02/10 17:53:02;;;;;;;15.23;11.38;;;;;;;4.90;83.62;98224.41;1858281;77;20958;-64
2022/02/10 17:55:28;;;;;;;16.70;12.60;;;;;;;4.94;83.54;98220.75;1857948;77;21288;-64
2022/02/10 17:57:54;;;;;;;17.48;13.78;;;;;;;4.95;83.24;98211.20;1857904;77;20924;-66
2022/02/10 18:00:25;;;;;;;17.57;13.48;;;;;;;4.95;82.96;98220.50;1858088;77;20979;-66
2022/02/10 18:02:50;;;;;;;22.52;14.87;;;;;;;4.92;82.71;98215.70;1858184;77;20923;-67
2022/02/10 18:07:51;;;;;;;13.68;11.10;;;;;;;4.90;82.03;98217.78;1786665;77;21127;-64
2022/02/10 18:15:53;;;;;;;;;;;;;;;4.91;81.31;98209.30;1852029;77;20892;-61
2022/02/10 18:18:37;;;;;;;13.93;10.10;;;;;;;4.93;81.09;98217.81;1848548;77;20114;-60
2022/02/10 18:21:05;;;;;;;11.73;9.33;;;;;;;4.92;80.87;98211.72;1847168;77;21096;-66
2022/02/10 18:23:32;;;;;;;13.53;9.83;;;;;;;4.94;80.53;98221.56;1847418;77;21510;-66
2022/02/10 18:25:59;;;;;;;14.35;10.82;;;;;;;4.94;80.30;98214.92;1847724;77;20928;-64
2022/02/10 18:28:28;;;;;;;13.90;10.98;;;;;;;4.93;79.98;98211.98;1848009;77;20881;-62
2022/02/10 19:08:25;;;;;;;19.98;12.58;;;;;;;4.66;79.21;98168.69;1739090;82;20949;-67
2022/02/10 19:10:55;;;;;;;20.35;14.10;;;;;;;4.67;79.14;98164.97;1738926;82;21064;-66
2022/02/10 19:13:19;;;;;;;18.42;13.75;;;;;;;4.65;79.06;98160.44;1784149;77;21096;-63
2022/02/10 19:15:46;;;;;;;21.15;13.60;;;;;;;4.61;78.91;98152.70;1860594;77;20951;-63
2022/02/10 19:18:12;;;;;;;26.85;17.92;;;;;;;4.59;78.80;98144.20;1860843;77;21023;-62
2022/02/10 19:20:39;;;;;;;30.08;20.90;;;;;;;4.56;78.80;98140.70;1860752;77;20884;-62
2022/02/10 19:23:07;;;;;;;31.55;20.77;;;;;;;4.55;78.91;98137.77;1860809;77;20974;-67
2022/02/10 19:25:39;;;;;;;18.92;12.75;;;;;;;4.51;78.94;98138.80;1860667;77;21091;-64
2022/02/10 19:28:06;;;;;;;24.90;17.25;;;;;;;4.45;78.82;98124.41;1860907;77;20915;-67
2022/02/10 19:30:36;;;;;;;16.32;10.93;;;;;;;4.42;78.85;98124.89;1860743;77;20868;-64
2022/02/10 19:33:07;;;;;;;14.78;10.50;;;;;;;4.41;78.84;98117.97;1860669;77;21005;-60
2022/02/10 19:35:39;;;;;;;17.90;12.07;;;;;;;4.41;78.71;98107.36;1860799;77;20919;-68
2022/02/10 19:38:04;;;;;;;21.25;14.68;;;;;;;4.41;78.76;98110.83;1860246;77;21271;-65
2022/02/10 19:40:35;;;;;;;21.25;13.60;;;;;;;4.41;78.84;98108.17;1860868;77;20833;-62
2022/02/10 19:43:00;;;;;;;18.70;13.18;;;;;;;4.40;78.93;98106.59;1823372;78;20867;-66
2022/02/10 19:45:28;;;;;;;19.92;12.45;;;;;;;4.38;78.97;98107.88;1822991;78;20906;-60
2022/02/10 19:47:54;;;;;;;18.60;12.13;;;;;;;4.35;78.84;98103.06;1789163;80;20980;-63
2022/02/10 19:50:31;;;;;;;13.32;9.70;;;;;;;4.31;78.84;98104.61;1822911;78;21077;-61
2022/02/10 19:52:51;;;;;;;13.65;9.20;;;;;;;4.29;78.92;98125.25;1815971;78;20891;-65
2022/02/10 19:55:21;;;;;;;14.13;9.40;;;;;;;4.29;78.88;98126.57;1820900;78;21410;-67
2022/02/10 19:57:48;;;;;;;14.53;9.95;;;;;;;4.28;78.85;98123.66;1820620;78;20919;-67
2022/02/10 20:00:20;;;;;;;15.05;10.43;;;;;;;4.29;78.83;98119.42;1820706;78;20919;-60
2022/02/10 20:02:45;;;;;;;14.85;10.08;;;;;;;4.29;78.73;98134.01;1820525;78;20993;-68
2022/02/10 20:05:12;;;;;;;13.50;9.95;;;;;;;4.25;78.78;98136.88;1821020;78;20951;-63
2022/02/10 20:07:41;;;;;;;12.68;9.83;;;;;;;4.23;78.83;98128.89;1819938;78;20860;-61
2022/02/10 20:10:09;;;;;;;16.60;10.98;;;;;;;4.20;78.79;98141.30;1855253;77;20876;-62
2022/02/10 20:12:38;;;;;;;12.58;9.75;;;;;;;4.15;78.85;98155.30;1855349;77;20900;-66
2022/02/10 20:15:08;;;;;;;13.00;9.88;;;;;;;4.13;78.88;98167.48;1855196;77;21149;-66
2022/02/10 20:17:35;;;;;;;9.68;7.83;;;;;;;4.12;78.92;98151.83;1855456;77;20920;-66
2022/02/10 20:20:04;;;;;;;10.50;7.65;;;;;;;4.12;79.00;98130.62;1855405;77;21462;-64
2022/02/10 20:22:38;;;;;;;9.03;7.03;;;;;;;4.11;78.69;98117.89;1855597;77;20919;-64
2022/02/10 20:25:07;;;;;;;12.20;7.53;;;;;;;4.10;78.54;98130.85;1855073;77;20971;-61
2022/02/10 20:27:34;;;;;;;11.15;7.83;;;;;;;4.13;78.51;98129.56;1855396;77;21670;-69
2022/02/10 20:30:04;;;;;;;12.50;8.15;;;;;;;4.17;78.31;98131.99;1855044;77;21341;-64
2022/02/10 20:32:31;;;;;;;10.45;7.60;;;;;;;4.22;78.22;98127.28;1855310;77;20903;-62
2022/02/10 20:34:57;;;;;;;9.90;6.85;;;;;;;4.25;78.19;98133.42;1855288;77;21423;-62
2022/02/10 20:37:24;;;;;;;12.68;8.75;;;;;;;4.26;77.93;98128.41;1855520;77;20974;-64
2022/02/10 20:39:51;;;;;;;10.30;7.70;;;;;;;4.26;77.70;98110.66;1855097;77;21092;-66
2022/02/10 20:42:20;;;;;;;10.60;7.95;;;;;;;4.25;77.62;98130.77;1855416;77;20833;-61
2022/02/10 20:44:52;;;;;;;7.53;6.75;;;;;;;4.24;77.49;98129.19;1855203;77;20943;-61
2022/02/10 20:47:18;;;;;;;7.85;6.20;;;;;;;4.23;77.43;98118.29;1854689;77;21032;-63
2022/02/10 20:49:44;;;;;;;11.20;7.10;;;;;;;4.18;77.32;98117.70;1855150;77;20998;-63
2022/02/10 20:52:11;;;;;;;10.75;7.33;;;;;;;4.19;77.34;98122.48;1855298;77;21419;-66
2022/02/10 20:54:39;;;;;;;10.55;7.28;;;;;;;4.19;77.35;98112.69;1855134;77;20848;-67
2022/02/10 20:57:06;;;;;;;10.15;7.00;;;;;;;4.21;77.40;98107.94;1855171;77;20908;-66
2022/02/10 20:59:39;;;;;;;13.25;8.03;;;;;;;4.23;77.30;98107.69;1855009;77;20956;-60
2022/02/10 21:02:13;;;;;;;10.30;8.10;;;;;;;4.23;77.24;98107.17;1855130;77;21499;-65
2022/02/10 21:07:25;;;;;;;22.00;15.48;;;;;;;4.24;77.20;98113.27;1855010;77;20833;-61
2022/02/10 21:10:05;;;;;;;20.25;13.98;;;;;;;4.23;77.16;98112.98;1849402;77;20912;-59
2022/02/10 21:12:35;;;;;;;14.53;11.03;;;;;;;4.22;77.18;98116.67;1849198;77;21371;-65
2022/02/10 21:15:01;;;;;;;12.30;7.67;;;;;;;4.20;77.21;98116.13;1808613;79;20825;-65
2022/02/10 21:17:28;;;;;;;11.00;7.62;;;;;;;4.20;77.18;98122.23;1777037;80;21282;-63
2022/02/10 21:20:02;;;;;;;9.45;7.08;;;;;;;4.23;77.25;98116.97;1808910;79;20904;-64
2022/02/10 21:22:28;;;;;;;9.45;6.42;;;;;;;4.25;77.16;98110.88;1808922;79;20900;-61
2022/02/10 21:25:09;;;;;;;9.88;6.75;;;;;;;4.28;77.00;98111.21;1777054;80;20935;-67
2022/02/10 21:30:07;;;;;;;;;;;;;;;4.35;77.00;98106.52;1811789;79;21079;-60
2022/02/10 21:32:39;;;;;;;11.57;7.42;;;;;;;4.37;76.90;98096.98;1808915;79;20065;-62
2022/02/10 21:37:46;;;;;;;10.40;7.92;;;;;;;4.31;76.85;98086.05;1808945;79;20845;-63
2022/02/10 21:40:25;;;;;;;10.60;7.70;;;;;;;4.27;76.82;98087.05;1773751;80;21407;-66
2022/02/10 21:52:38;;;;;;;10.20;7.33;;;;;;;4.07;77.05;98082.30;1775449;80;20936;-60
2022/02/10 22:12:12;;;;;;;10.70;8.83;;;;;;;3.87;77.62;98059.52;1754768;81;20914;-65
2022/02/10 22:19:35;;;;;;;12.23;9.70;;;;;;;3.85;77.86;98048.38;1784329;79;20929;-60
2022/02/10 22:21:57;;;;;;;14.45;9.63;;;;;;;3.87;77.95;98046.27;1827762;78;21101;-60
2022/02/10 22:24:23;;;;;;;12.88;10.08;;;;;;;3.88;77.97;98047.89;1812658;78;20963;-60
2022/02/10 22:26:52;;;;;;;14.80;10.43;;;;;;;3.90;78.07;98040.49;1829310;78;20831;-60
2022/02/10 22:29:27;;;;;;;13.28;10.20;;;;;;;3.95;78.01;98041.88;1812424;79;20942;-69
2022/02/10 22:31:56;;;;;;;11.15;9.33;;;;;;;3.97;77.91;98042.44;1828031;78;21402;-69
2022/02/10 22:36:57;;;;;;;;;;;;;;;3.98;77.75;98038.72;1832134;78;20903;-64
2022/02/10 22:39:23;;;;;;;13.35;8.45;;;;;;;3.96;77.72;98039.49;1829373;78;20162;-60
2022/02/10 22:41:50;;;;;;;11.90;9.08;;;;;;;3.92;77.76;98043.69;1829429;78;20911;-61
2022/02/10 22:44:18;;;;;;;12.65;8.48;;;;;;;3.91;77.80;98038.10;1812426;78;20868;-64
2022/02/10 22:46:45;;;;;;;10.05;7.90;;;;;;;3.90;77.80;98036.52;1829507;78;21741;-67
2022/02/10 22:49:12;;;;;;;11.43;8.23;;;;;;;3.91;77.90;98037.33;1812456;79;21344;-61
2022/02/10 22:51:39;;;;;;;11.05;8.33;;;;;;;3.90;77.87;98027.24;1829434;78;21430;-67
2022/02/10 22:54:06;;;;;;;13.10;8.30;;;;;;;3.91;77.90;98026.72;1812390;79;20912;-67
2022/02/10 22:56:33;;;;;;;12.95;8.70;;;;;;;3.91;77.93;98029.38;1829675;77;20962;-63
2022/02/10 22:59:04;;;;;;;12.40;9.25;;;;;;;3.89;77.96;98025.63;1812308;79;21746;-61
2022/02/10 23:01:32;;;;;;;11.53;9.30;;;;;;;3.88;78.01;98029.34;1829723;77;21383;-67
2022/02/10 23:03:59;;;;;;;13.65;9.90;;;;;;;3.88;78.06;98038.62;1812311;78;20854;-61
2022/02/10 23:06:25;;;;;;;13.45;9.23;;;;;;;3.86;78.09;98035.38;1829582;78;20961;-68
2022/02/10 23:08:52;;;;;;;11.00;8.63;;;;;;;3.85;78.23;98027.69;1810346;79;20868;-64
2022/02/10 23:11:28;;;;;;;12.25;9.58;;;;;;;3.82;78.31;98025.01;1780627;80;21061;-67
2022/02/10 23:13:57;;;;;;;13.05;9.25;;;;;;;3.82;78.41;98026.84;1809171;79;20927;-66
2022/02/10 23:16:25;;;;;;;11.22;9.43;;;;;;;3.82;78.46;98025.52;1808881;79;20892;-66
2022/02/10 23:18:53;;;;;;;11.48;9.48;;;;;;;3.82;78.55;98025.01;1775529;80;20999;-62
2022/02/10 23:21:19;;;;;;;11.35;8.78;;;;;;;3.84;78.55;98026.88;1808917;79;20912;-61
2022/02/10 23:23:50;;;;;;;11.60;9.55;;;;;;;3.85;78.61;98015.77;1775745;80;21089;-66
2022/02/10 23:26:19;;;;;;;11.35;9.48;;;;;;;3.85;78.63;98017.09;1776990;80;21510;-67
2022/02/10 23:28:52;;;;;;;13.90;10.35;;;;;;;3.83;78.64;98019.19;1809233;79;20900;-61
2022/02/10 23:31:21;;;;;;;12.73;9.23;;;;;;;3.83;78.71;98017.35;1775469;80;20925;-66
2022/02/10 23:33:52;;;;;;;12.70;9.65;;;;;;;3.83;78.76;98018.67;1809284;79;20868;-61
2022/02/10 23:39:08;;;;;;;13.00;10.53;;;;;;;3.87;78.90;98008.37;1808963;79;20834;-59
2022/02/10 23:44:10;;;;;;;13.50;10.55;;;;;;;3.84;78.93;98010.21;1775351;80;20937;-67
2022/02/10 23:46:34;;;;;;;13.03;10.15;;;;;;;3.78;78.98;98006.69;1808318;79;20959;-63
2022/02/10 23:49:00;;;;;;;14.58;11.03;;;;;;;3.74;79.10;98007.42;1775631;80;21829;-66
2022/02/10 23:51:32;;;;;;;18.37;11.40;;;;;;;3.70;79.24;98004.45;1809283;79;21288;-63
2022/02/10 23:53:55;;;;;;;13.85;10.90;;;;;;;3.67;79.35;98008.94;1775289;80;20956;-65
2022/02/10 23:56:27;;;;;;;15.53;11.35;;;;;;;3.64;79.50;98009.42;1809215;79;21400;-65
